Time;durP1;ratioP1;P1;durP2;ratioP2;P2;SDS_P1;SDS_P2;PMS_P1;PMS_P2;Temp;Humidity;BMP_temperature;BMP_pressure;BME280_temperature;BME280_humidity;BME280_pressure;Samples;Min_cycle;Max_cycle;Signal;HPM_P1;HPM_P2
2022/10/28 00:02:01;;;;;;;86.80;36.67;;;;;;;-142.57;100.00;61215.63;4931097;29;20060;-87
2022/10/28 00:04:27;;;;;;;78.35;35.80;;;;;;;-142.57;100.00;61215.63;4931625;29;20059;-87
2022/10/28 00:06:52;;;;;;;92.97;37.03;;;;;;;-142.57;100.00;61215.63;4923385;29;20056;-87
2022/10/28 00:09:18;;;;;;;84.63;34.70;;;;;;;-142.57;100.00;61215.63;4923749;29;20489;-87
2022/10/28 00:11:44;;;;;;;81.10;33.55;;;;;;;-142.57;100.00;61215.63;4908183;29;20131;-87
2022/10/28 00:14:10;;;;;;;80.90;33.10;;;;;;;-142.57;100.00;61215.63;4924251;29;20100;-86
2022/10/28 00:16:36;;;;;;;80.18;34.08;;;;;;;-142.57;100.00;61215.63;4925444;29;20048;-87
2022/10/28 00:19:04;;;;;;;69.45;31.45;;;;;;;-142.57;100.00;61215.63;4923187;29;20036;-84
2022/10/28 00:21:32;;;;;;;73.53;31.90;;;;;;;-142.57;100.00;61215.63;4920750;29;20035;-87
2022/10/28 00:23:58;;;;;;;78.95;31.75;;;;;;;-142.57;100.00;61215.63;4923150;29;20043;-86
2022/10/28 00:26:26;;;;;;;79.50;33.35;;;;;;;-142.57;100.00;61215.63;4921857;29;20032;-86
2022/10/28 00:29:15;;;;;;;76.03;32.88;;;;;;;-142.57;100.00;61215.63;4920181;29;20377;-89
2022/10/28 00:31:42;;;;;;;75.15;32.83;;;;;;;-142.57;100.00;61215.63;4922915;29;20051;-88
2022/10/28 00:34:11;;;;;;;72.00;33.75;;;;;;;-142.57;100.00;61215.63;4922294;29;20047;-89
2022/10/28 00:36:39;;;;;;;79.55;33.90;;;;;;;-142.57;100.00;61215.63;4921178;29;20082;-89
2022/10/28 00:39:11;;;;;;;74.75;34.00;;;;;;;-142.57;100.00;61215.63;4920814;29;20506;-87
2022/10/28 00:41:38;;;;;;;80.13;33.33;;;;;;;-142.57;100.00;61215.63;4920061;29;20191;-86
2022/10/28 00:44:41;;;;;;;83.82;33.28;;;;;;;-142.57;100.00;61215.63;4922162;29;20086;-87
2022/10/28 00:47:22;;;;;;;85.20;35.60;;;;;;;-142.57;100.00;61215.63;4919514;29;20047;-87
2022/10/28 00:49:50;;;;;;;80.97;36.08;;;;;;;-142.57;100.00;61215.63;4918695;29;20051;-87
2022/10/28 00:52:20;;;;;;;80.50;34.20;;;;;;;-142.57;100.00;61215.63;4918248;29;20047;-85
2022/10/28 00:54:47;;;;;;;88.90;38.63;;;;;;;-142.57;100.00;61215.63;4919336;29;20095;-87
2022/10/28 00:57:20;;;;;;;97.05;39.22;;;;;;;-142.57;100.00;61215.63;4919362;29;20031;-87
2022/10/28 00:59:49;;;;;;;83.22;39.25;;;;;;;-142.57;100.00;61215.63;4919887;29;20036;-85
2022/10/28 01:02:15;;;;;;;92.10;39.30;;;;;;;-142.57;100.00;61215.63;4919538;29;20040;-87
2022/10/28 01:04:41;;;;;;;90.22;39.75;;;;;;;-142.57;100.00;61215.63;4917188;29;20035;-86
2022/10/28 01:07:08;;;;;;;95.30;39.20;;;;;;;-142.57;100.00;61215.63;4918822;29;20482;-86
2022/10/28 01:09:33;;;;;;;97.15;39.97;;;;;;;-142.57;100.00;61215.63;4919203;29;20044;-86
2022/10/28 01:12:28;;;;;;;98.10;41.03;;;;;;;-142.57;100.00;61215.63;4919188;29;20035;-85
2022/10/28 01:15:22;;;;;;;96.93;40.17;;;;;;;-142.57;100.00;61215.63;4901986;29;20471;-87
2022/10/28 01:17:56;;;;;;;85.75;37.15;;;;;;;-142.57;100.00;61215.63;4919008;29;20040;-86
2022/10/28 01:20:43;;;;;;;92.82;39.30;;;;;;;-142.57;100.00;61215.63;4921806;29;20040;-87
2022/10/28 01:23:24;;;;;;;96.47;39.75;;;;;;;-142.57;100.00;61215.63;4937842;29;20130;-86
2022/10/28 01:25:55;;;;;;;92.65;39.70;;;;;;;-142.57;100.00;61215.63;4937349;29;20556;-91
2022/10/28 01:28:59;;;;;;;98.88;39.95;;;;;;;-142.57;100.00;61215.63;4920140;29;20067;-88
2022/10/28 01:31:44;;;;;;;94.10;38.80;;;;;;;-142.57;100.00;61215.63;4904100;29;20130;-86
2022/10/28 01:34:28;;;;;;;92.00;39.35;;;;;;;-142.57;100.00;61215.63;4936819;29;20032;-86
2022/10/28 01:37:18;;;;;;;92.72;40.85;;;;;;;-142.57;100.00;61215.63;4937389;29;20043;-88
2022/10/28 01:40:03;;;;;;;88.30;38.60;;;;;;;-142.57;100.00;61215.63;4937753;29;20401;-86
2022/10/28 01:42:41;;;;;;;80.43;36.05;;;;;;;-142.57;100.00;61215.63;4937531;29;20036;-87
2022/10/28 01:45:19;;;;;;;82.65;35.90;;;;;;;-142.57;100.00;61215.63;4937197;29;20072;-87
2022/10/28 01:48:01;;;;;;;86.10;36.58;;;;;;;-142.57;100.00;61215.63;4937466;29;20039;-87
2022/10/28 01:50:36;;;;;;;80.75;33.30;;;;;;;-142.57;100.00;61215.63;4937355;29;20036;-86
2022/10/28 01:53:09;;;;;;;83.72;34.70;;;;;;;-142.57;100.00;61215.63;4937216;29;20067;-86
2022/10/28 01:55:39;;;;;;;89.60;35.17;;;;;;;-142.57;100.00;61215.63;4938779;29;20046;-86
2022/10/28 01:58:08;;;;;;;78.65;34.58;;;;;;;-142.57;100.00;61215.63;4939329;29;20040;-87
2022/10/28 02:00:35;;;;;;;74.40;33.95;;;;;;;-142.57;100.00;61215.63;4941959;29;20667;-85
2022/10/28 02:03:02;;;;;;;84.25;33.30;;;;;;;-142.57;100.00;61215.63;4942970;29;20087;-88
2022/10/28 02:05:42;;;;;;;78.88;34.13;;;;;;;-142.57;100.00;61215.63;4956468;29;20480;-85
2022/10/28 02:08:17;;;;;;;86.50;34.58;;;;;;;-142.57;100.00;61215.63;4956025;29;20052;-84
2022/10/28 02:11:21;;;;;;;87.68;34.53;;;;;;;-142.57;100.00;61215.63;4956978;29;20040;-87
2022/10/28 02:14:24;;;;;;;75.05;34.45;;;;;;;-142.57;100.00;61215.63;4957647;29;20087;-86
2022/10/28 02:17:14;;;;;;;79.97;34.42;;;;;;;-142.57;100.00;61215.63;4958590;29;20047;-86
2022/10/28 02:19:51;;;;;;;67.50;32.80;;;;;;;-142.57;100.00;61215.63;4940045;29;20038;-85
2022/10/28 02:22:21;;;;;;;70.72;32.10;;;;;;;-142.57;100.00;61215.63;4939659;29;20071;-86
2022/10/28 02:25:29;;;;;;;85.35;35.80;;;;;;;-142.57;100.00;61215.63;4940209;29;20152;-86
2022/10/28 02:28:00;;;;;;;84.22;34.50;;;;;;;-142.57;100.00;61215.63;4899271;29;20135;-86
2022/10/28 02:30:32;;;;;;;85.00;37.15;;;;;;;-142.57;100.00;61215.63;4932907;29;20131;-86
2022/10/28 02:33:00;;;;;;;89.90;37.55;;;;;;;-142.57;100.00;61215.63;4939690;29;20039;-84
2022/10/28 02:35:38;;;;;;;95.85;38.17;;;;;;;-142.57;100.00;61215.63;4939231;29;20043;-86
2022/10/28 02:38:09;;;;;;;88.95;39.13;;;;;;;-142.57;100.00;61215.63;4938214;29;20456;-86
2022/10/28 02:40:38;;;;;;;93.28;37.70;;;;;;;-142.57;100.00;61215.63;4939282;29;20062;-84
2022/10/28 02:43:08;;;;;;;86.95;37.95;;;;;;;-142.57;100.00;61215.63;4939600;29;20510;-85
2022/10/28 02:45:38;;;;;;;87.75;36.50;;;;;;;-142.57;100.00;61215.63;4939078;29;20040;-87
2022/10/28 02:48:13;;;;;;;83.15;34.28;;;;;;;-142.57;100.00;61215.63;4938226;29;20055;-85
2022/10/28 02:50:44;;;;;;;85.63;35.17;;;;;;;-142.57;100.00;61215.63;4939674;29;20035;-85
2022/10/28 02:53:18;;;;;;;82.18;35.40;;;;;;;-142.57;100.00;61215.63;4939407;29;20358;-85
2022/10/28 02:55:47;;;;;;;81.40;34.88;;;;;;;-142.57;100.00;61215.63;4940359;29;20468;-85
2022/10/28 02:58:13;;;;;;;86.03;35.80;;;;;;;-142.57;100.00;61215.63;4949238;29;20046;-85
2022/10/28 03:00:43;;;;;;;70.78;33.03;;;;;;;-142.57;100.00;61215.63;4943514;29;20040;-84
2022/10/28 03:03:08;;;;;;;85.15;35.88;;;;;;;-142.57;100.00;61215.63;4941653;29;20488;-84
2022/10/28 03:05:34;;;;;;;79.35;33.42;;;;;;;-142.57;100.00;61215.63;4940276;29;20038;-85
2022/10/28 03:07:59;;;;;;;83.32;35.63;;;;;;;-142.57;100.00;61215.63;4939729;29;20415;-86
2022/10/28 03:10:25;;;;;;;80.00;33.90;;;;;;;-142.57;100.00;61215.63;4939341;29;20110;-84
2022/10/28 03:12:51;;;;;;;71.40;33.70;;;;;;;-142.57;100.00;61215.63;4938398;29;20032;-85
2022/10/28 03:15:16;;;;;;;81.28;34.15;;;;;;;-142.57;100.00;61215.63;4937969;29;20484;-85
2022/10/28 03:17:42;;;;;;;75.53;32.53;;;;;;;-142.57;100.00;61215.63;4938709;29;20036;-86
2022/10/28 03:20:08;;;;;;;85.40;34.38;;;;;;;-142.57;100.00;61215.63;4936884;29;20062;-85
2022/10/28 03:22:34;;;;;;;76.78;34.53;;;;;;;-142.57;100.00;61215.63;4938373;29;20032;-87
2022/10/28 03:25:00;;;;;;;78.10;36.40;;;;;;;-142.57;100.00;61215.63;4938336;29;20389;-88
2022/10/28 03:27:26;;;;;;;96.97;36.45;;;;;;;-142.57;100.00;61215.63;4936484;29;20098;-87
2022/10/28 03:29:51;;;;;;;93.75;37.65;;;;;;;-142.57;100.00;61215.63;4936892;29;20485;-88
2022/10/28 03:32:17;;;;;;;88.43;35.67;;;;;;;-142.57;100.00;61215.63;4939252;29;20052;-87
2022/10/28 03:34:42;;;;;;;88.43;35.88;;;;;;;-142.57;100.00;61215.63;4937456;29;20035;-86
2022/10/28 03:37:08;;;;;;;81.78;35.38;;;;;;;-142.57;100.00;61215.63;4938437;29;20422;-88
2022/10/28 03:39:34;;;;;;;90.40;36.25;;;;;;;-142.57;100.00;61215.63;4937388;29;20036;-86
2022/10/28 03:41:59;;;;;;;88.85;35.15;;;;;;;-142.57;100.00;61215.63;4937825;29;20485;-88
2022/10/28 03:44:25;;;;;;;87.18;33.60;;;;;;;-142.57;100.00;61215.63;4939092;29;20032;-87
2022/10/28 03:46:50;;;;;;;82.63;34.60;;;;;;;-142.57;100.00;61215.63;4938981;29;20079;-87
2022/10/28 03:49:16;;;;;;;82.80;34.45;;;;;;;-142.57;100.00;61215.63;4940420;29;20044;-86
2022/10/28 03:51:41;;;;;;;75.90;33.60;;;;;;;-142.57;100.00;61215.63;4938756;29;20035;-86
2022/10/28 03:54:07;;;;;;;82.28;35.08;;;;;;;-142.57;100.00;61215.63;4938844;29;20034;-87
2022/10/28 03:56:33;;;;;;;82.63;34.55;;;;;;;-142.57;100.00;61215.63;4938260;29;20397;-84
2022/10/28 03:58:58;;;;;;;76.95;33.30;;;;;;;-142.57;100.00;61215.63;4938373;29;20092;-85
2022/10/28 04:01:24;;;;;;;86.47;33.88;;;;;;;-142.57;100.00;61215.63;4937991;29;20048;-88
2022/10/28 04:03:49;;;;;;;73.35;31.65;;;;;;;-142.57;100.00;61215.63;4938857;29;20038;-87
2022/10/28 04:06:15;;;;;;;85.68;34.40;;;;;;;-142.57;100.00;61215.63;4938826;29;20043;-90
2022/10/28 04:08:41;;;;;;;88.85;34.70;;;;;;;-142.57;100.00;61215.63;4937256;29;20054;-85
2022/10/28 04:11:07;;;;;;;94.72;35.50;;;;;;;-142.57;100.00;61215.63;4938510;29;20505;-86
2022/10/28 04:13:33;;;;;;;90.53;38.03;;;;;;;-142.57;100.00;61215.63;4937008;29;20078;-88
2022/10/28 04:16:00;;;;;;;94.75;37.45;;;;;;;-142.57;100.00;61215.63;4939256;29;20111;-89
2022/10/28 04:18:26;;;;;;;80.72;34.83;;;;;;;-142.57;100.00;61215.63;4938266;29;20493;-85
2022/10/28 04:20:52;;;;;;;91.88;36.92;;;;;;;-142.57;100.00;61215.63;4939272;29;20043;-86
2022/10/28 04:23:18;;;;;;;95.25;37.88;;;;;;;-142.57;100.00;61215.63;4938094;29;20039;-90
2022/10/28 04:25:43;;;;;;;89.20;36.35;;;;;;;-142.57;100.00;61215.63;4939582;29;20039;-87
2022/10/28 04:28:09;;;;;;;91.50;36.67;;;;;;;-142.57;100.00;61215.63;4939194;29;20043;-88
2022/10/28 04:30:37;;;;;;;83.95;35.38;;;;;;;-142.57;100.00;61215.63;4939517;29;20033;-90
2022/10/28 04:33:05;;;;;;;90.57;35.03;;;;;;;-142.57;100.00;61215.63;4939025;29;20552;-89
2022/10/28 04:35:31;;;;;;;71.60;33.72;;;;;;;-142.57;100.00;61215.63;4947463;29;20099;-84
2022/10/28 04:37:57;;;;;;;88.18;35.97;;;;;;;-142.57;100.00;61215.63;4942120;29;20036;-86
2022/10/28 04:40:22;;;;;;;82.65;35.17;;;;;;;-142.57;100.00;61215.63;4949942;29;20370;-85
2022/10/28 04:42:48;;;;;;;79.50;35.05;;;;;;;-142.57;100.00;61215.63;4951634;29;20036;-85
2022/10/28 04:45:14;;;;;;;81.85;33.88;;;;;;;-142.57;100.00;61215.63;4952337;29;20031;-86
2022/10/28 04:47:40;;;;;;;89.47;35.55;;;;;;;-142.57;100.00;61215.63;4951116;29;20075;-85
2022/10/28 04:50:06;;;;;;;78.88;34.80;;;;;;;-142.57;100.00;61215.63;4948468;29;20103;-86
2022/10/28 04:52:31;;;;;;;74.88;34.55;;;;;;;-142.57;100.00;61215.63;4939329;29;20041;-87
2022/10/28 04:54:57;;;;;;;86.82;36.78;;;;;;;-142.57;100.00;61215.63;4937400;29;20405;-86
2022/10/28 04:57:22;;;;;;;79.97;35.65;;;;;;;-142.57;100.00;61215.63;4938033;29;20031;-89
2022/10/28 04:59:48;;;;;;;78.03;34.13;;;;;;;-142.57;100.00;61215.63;4912042;29;20024;-87
2022/10/28 05:02:13;;;;;;;84.88;36.00;;;;;;;-142.57;100.00;61215.63;4899245;29;20060;-90
2022/10/28 05:04:39;;;;;;;82.60;35.00;;;;;;;-142.57;100.00;61215.63;4901203;29;20124;-88
2022/10/28 05:07:04;;;;;;;81.25;34.47;;;;;;;-142.57;100.00;61215.63;4903057;29;20044;-87
2022/10/28 05:09:30;;;;;;;80.65;34.65;;;;;;;-142.57;100.00;61215.63;4903015;29;20037;-88
2022/10/28 05:11:55;;;;;;;90.07;36.97;;;;;;;-142.57;100.00;61215.63;4905491;29;20055;-87
2022/10/28 05:14:25;;;;;;;90.60;36.70;;;;;;;-142.57;100.00;61215.63;4904909;29;20043;-87
2022/10/28 05:16:50;;;;;;;87.95;37.90;;;;;;;-142.57;100.00;61215.63;4904057;29;20172;-89
2022/10/28 05:19:16;;;;;;;89.85;37.60;;;;;;;-142.57;100.00;61215.63;4904454;29;20090;-88
2022/10/28 05:21:44;;;;;;;95.97;38.17;;;;;;;-142.57;100.00;61215.63;4907095;29;20068;-90
2022/10/28 05:24:16;;;;;;;94.75;37.00;;;;;;;-142.57;100.00;61215.63;4905081;29;20037;-90
2022/10/28 05:26:42;;;;;;;50.22;24.10;;;;;;;-142.57;100.00;61215.63;4906123;29;20088;-88
2022/10/28 05:29:07;;;;;;;86.03;32.58;;;;;;;-142.57;100.00;61215.63;4904155;29;20036;-91
2022/10/28 05:31:33;;;;;;;76.40;31.80;;;;;;;-142.57;100.00;61215.63;4903694;29;20047;-88
2022/10/28 05:33:59;;;;;;;73.63;30.02;;;;;;;-142.57;100.00;61215.63;4903819;29;20037;-86
2022/10/28 05:36:28;;;;;;;71.82;28.77;;;;;;;-142.57;100.00;61215.63;4902748;29;20551;-87
2022/10/28 05:38:56;;;;;;;79.55;29.25;;;;;;;-142.57;100.00;61215.63;4903312;29;20112;-90
2022/10/28 05:41:22;;;;;;;65.65;29.05;;;;;;;-142.57;100.00;61215.63;4902442;29;20045;-90
2022/10/28 05:43:50;;;;;;;61.53;28.98;;;;;;;-142.57;100.00;61215.63;4901912;29;20036;-92
2022/10/28 05:46:15;;;;;;;80.30;31.33;;;;;;;-142.57;100.00;61215.63;4884905;29;20204;-89
2022/10/28 05:48:42;;;;;;;73.40;32.38;;;;;;;-142.57;100.00;61215.63;4899676;29;20060;-91
2022/10/28 05:51:07;;;;;;;73.32;32.13;;;;;;;-142.57;100.00;61215.63;4905825;29;20037;-86
2022/10/28 05:53:33;;;;;;;72.60;32.08;;;;;;;-142.57;100.00;61215.63;4906938;29;20115;-88
2022/10/28 05:55:58;;;;;;;86.40;32.85;;;;;;;-142.57;100.00;61215.63;4886124;29;20131;-86
2022/10/28 05:58:24;;;;;;;68.05;31.15;;;;;;;-142.57;100.00;61215.63;4901821;29;20062;-87
2022/10/28 06:00:49;;;;;;;67.82;29.80;;;;;;;-142.57;100.00;61215.63;4901304;29;20105;-87
2022/10/28 06:03:15;;;;;;;76.53;30.48;;;;;;;-142.57;100.00;61215.63;4902447;29;20099;-86
2022/10/28 06:05:43;;;;;;;67.13;29.38;;;;;;;-142.57;100.00;61215.63;4900752;29;20407;-85
2022/10/28 06:08:11;;;;;;;67.07;30.02;;;;;;;-142.57;100.00;61215.63;4901750;29;20103;-85
2022/10/28 06:10:36;;;;;;;78.90;31.27;;;;;;;-142.57;100.00;61215.63;4902823;29;20056;-87
2022/10/28 06:13:02;;;;;;;74.90;31.17;;;;;;;-142.57;100.00;61215.63;4902533;29;20478;-85
2022/10/28 06:15:27;;;;;;;71.07;32.40;;;;;;;-142.57;100.00;61215.63;4901591;29;20439;-87
2022/10/28 06:17:53;;;;;;;76.95;31.10;;;;;;;-142.57;100.00;61215.63;4902989;29;20119;-87
2022/10/28 06:20:19;;;;;;;80.10;32.80;;;;;;;-142.57;100.00;61215.63;4902357;29;20080;-87
2022/10/28 06:22:48;;;;;;;83.75;33.88;;;;;;;-142.57;100.00;61215.63;4901428;29;20497;-85
2022/10/28 06:25:14;;;;;;;76.05;34.30;;;;;;;-142.57;100.00;61215.63;4903297;29;20475;-87
2022/10/28 06:27:39;;;;;;;75.90;33.95;;;;;;;-142.57;100.00;61215.63;4904490;29;20051;-89
2022/10/28 06:30:06;;;;;;;81.65;33.30;;;;;;;-142.57;100.00;61215.63;4901445;29;20052;-88
2022/10/28 06:32:31;;;;;;;72.00;32.90;;;;;;;-142.57;100.00;61215.63;4886100;29;20041;-85
2022/10/28 06:34:57;;;;;;;73.85;33.33;;;;;;;-142.57;100.00;61215.63;4902706;29;20052;-86
2022/10/28 06:37:22;;;;;;;74.35;31.17;;;;;;;-142.57;100.00;61215.63;4902478;29;20048;-86
2022/10/28 06:39:51;;;;;;;76.95;32.85;;;;;;;-142.57;100.00;61215.63;4902634;29;20035;-85
2022/10/28 06:42:17;;;;;;;80.95;31.98;;;;;;;-142.57;100.00;61215.63;4902122;29;20059;-86
2022/10/28 06:44:43;;;;;;;76.78;33.70;;;;;;;-142.57;100.00;61215.63;4903620;29;20033;-87
2022/10/28 06:47:08;;;;;;;74.75;33.13;;;;;;;-142.57;100.00;61215.63;4903507;29;20043;-87
2022/10/28 06:49:34;;;;;;;77.60;33.33;;;;;;;-142.57;100.00;61215.63;4902546;29;20125;-85
2022/10/28 06:51:59;;;;;;;78.47;32.85;;;;;;;-142.57;100.00;61215.63;4902554;29;20025;-84
2022/10/28 06:54:25;;;;;;;89.30;33.00;;;;;;;-142.57;100.00;61215.63;4902219;29;20052;-86
2022/10/28 06:56:50;;;;;;;75.18;32.33;;;;;;;-142.57;100.00;61215.63;4901970;29;20556;-85
2022/10/28 06:59:15;;;;;;;65.72;31.15;;;;;;;-142.57;100.00;61215.63;4902069;29;20097;-86
2022/10/28 07:01:41;;;;;;;71.47;28.60;;;;;;;-142.57;100.00;61215.63;4901017;29;20083;-83
2022/10/28 07:04:10;;;;;;;68.30;28.58;;;;;;;-142.57;100.00;61215.63;4913573;29;20085;-84
2022/10/28 07:06:36;;;;;;;62.85;27.25;;;;;;;-142.57;100.00;61215.63;4920974;29;20047;-84
2022/10/28 07:09:01;;;;;;;63.20;28.50;;;;;;;-142.57;100.00;61215.63;4924586;29;20040;-86
2022/10/28 07:11:27;;;;;;;69.78;26.88;;;;;;;-142.57;100.00;61215.63;4917391;29;20580;-86
2022/10/28 07:13:52;;;;;;;65.30;28.13;;;;;;;-142.57;100.00;61215.63;4886610;29;20127;-85
2022/10/28 07:16:18;;;;;;;59.65;25.35;;;;;;;-142.57;100.00;61215.63;4903324;29;20039;-86
2022/10/28 07:18:43;;;;;;;55.80;25.23;;;;;;;-142.57;100.00;61215.63;4901701;29;20067;-87
2022/10/28 07:21:12;;;;;;;50.65;24.90;;;;;;;-142.57;100.00;61215.63;4903403;29;20092;-85
2022/10/28 07:23:38;;;;;;;60.75;25.48;;;;;;;-142.57;100.00;61215.63;4900457;29;20029;-87
2022/10/28 07:26:04;;;;;;;54.13;24.33;;;;;;;-142.57;100.00;61215.63;4901164;29;20387;-87
2022/10/28 07:28:30;;;;;;;54.35;24.75;;;;;;;-142.57;100.00;61215.63;4899876;29;20040;-85
2022/10/28 07:31:00;;;;;;;50.35;23.23;;;;;;;-142.57;100.00;61215.63;4901873;29;20538;-90
2022/10/28 07:33:25;;;;;;;57.53;23.83;;;;;;;-142.57;100.00;61215.63;4902082;29;20037;-85
2022/10/28 07:35:51;;;;;;;57.78;24.15;;;;;;;-142.57;100.00;61215.63;4902169;29;20096;-85
2022/10/28 07:38:17;;;;;;;51.38;22.98;;;;;;;-142.57;100.00;61215.63;4900708;29;20087;-86
2022/10/28 07:40:42;;;;;;;67.07;24.75;;;;;;;-142.57;100.00;61215.63;4902713;29;20044;-86
2022/10/28 07:43:08;;;;;;;55.80;24.17;;;;;;;-142.57;100.00;61215.63;4902170;29;20041;-86
2022/10/28 07:45:34;;;;;;;54.55;24.05;;;;;;;-142.57;100.00;61215.63;4900317;29;20494;-85
2022/10/28 07:48:00;;;;;;;52.83;23.77;;;;;;;-142.57;100.00;61215.63;4900454;29;20406;-86
2022/10/28 07:50:26;;;;;;;68.00;25.95;;;;;;;-142.57;100.00;61215.63;4898866;29;20161;-87
2022/10/28 07:52:52;;;;;;;56.72;25.42;;;;;;;-142.57;100.00;61215.63;4900124;29;20584;-87
2022/10/28 07:55:20;;;;;;;77.47;26.70;;;;;;;-142.57;100.00;61215.63;4900038;29;20475;-88
2022/10/28 07:57:46;;;;;;;69.35;25.27;;;;;;;-142.57;100.00;61215.63;4900451;29;20041;-87
2022/10/28 08:00:13;;;;;;;73.82;28.73;;;;;;;-142.57;100.00;61215.63;4899969;29;20110;-86
2022/10/28 08:02:38;;;;;;;61.22;26.83;;;;;;;-142.57;100.00;61215.63;4898881;29;20459;-87
2022/10/28 08:05:04;;;;;;;74.53;28.10;;;;;;;-142.57;100.00;61215.63;4898774;29;20049;-89
2022/10/28 08:07:30;;;;;;;69.47;27.83;;;;;;;-142.57;100.00;61215.63;4899895;29;20394;-87
2022/10/28 08:09:57;;;;;;;60.75;26.20;;;;;;;-142.57;100.00;61215.63;4899888;29;20041;-88
2022/10/28 08:12:22;;;;;;;68.43;28.65;;;;;;;-142.57;100.00;61215.63;4899130;29;20120;-86
2022/10/28 08:14:48;;;;;;;71.43;27.65;;;;;;;-142.57;100.00;61215.63;4900031;29;20028;-86
2022/10/28 08:17:13;;;;;;;70.88;28.80;;;;;;;-142.57;100.00;61215.63;4900213;29;20037;-85
2022/10/28 08:19:39;;;;;;;66.18;29.60;;;;;;;-142.57;100.00;61215.63;4900097;29;20470;-87
2022/10/28 08:22:05;;;;;;;55.78;26.58;;;;;;;-142.57;100.00;61215.63;4898698;29;20051;-88
2022/10/28 08:24:31;;;;;;;61.22;25.38;;;;;;;-142.57;100.00;61215.63;4900465;29;20033;-86
2022/10/28 08:26:56;;;;;;;60.67;26.48;;;;;;;-142.57;100.00;61215.63;4899211;29;20047;-86
2022/10/28 08:29:22;;;;;;;57.17;25.70;;;;;;;-142.57;100.00;61215.63;4899681;29;20028;-86
2022/10/28 08:31:47;;;;;;;54.13;24.48;;;;;;;-142.57;100.00;61215.63;4899460;29;20104;-88
2022/10/28 08:34:13;;;;;;;50.88;23.60;;;;;;;-142.57;100.00;61215.63;4899347;29;20045;-88
2022/10/28 08:36:38;;;;;;;60.58;24.48;;;;;;;-142.57;100.00;61215.63;4899148;29;20036;-86
2022/10/28 08:39:04;;;;;;;62.25;23.85;;;;;;;-142.57;100.00;61215.63;4898306;29;20055;-85
2022/10/28 08:41:35;;;;;;;61.30;23.83;;;;;;;-142.57;100.00;61215.63;4899832;29;20065;-87
2022/10/28 08:44:25;;;;;;;55.42;24.27;;;;;;;-142.57;100.00;61215.63;4899119;29;20033;-89
2022/10/28 08:47:06;;;;;;;55.13;22.90;;;;;;;-142.57;100.00;61215.63;4899034;29;20064;-88
2022/10/28 08:49:35;;;;;;;57.92;22.75;;;;;;;-142.57;100.00;61215.63;4899404;29;20041;-86
2022/10/28 08:52:25;;;;;;;55.60;23.38;;;;;;;-142.57;100.00;61215.63;4900246;29;20562;-90
2022/10/28 08:55:04;;;;;;;53.03;23.75;;;;;;;-142.57;100.00;61215.63;4901534;29;21344;-87
2022/10/28 08:58:08;;;;;;;51.22;23.58;;;;;;;-142.57;100.00;61215.63;4904948;29;20039;-86
2022/10/28 09:00:35;;;;;;;54.42;23.92;;;;;;;-142.57;100.00;61215.63;4894743;29;20064;-88
2022/10/28 09:03:12;;;;;;;50.85;22.90;;;;;;;-142.57;100.00;61215.63;4905306;29;20049;-86
2022/10/28 09:06:03;;;;;;;53.80;23.77;;;;;;;-142.57;100.00;61215.63;4906060;29;20118;-86
2022/10/28 09:08:34;;;;;;;49.38;22.85;;;;;;;-142.57;100.00;61215.63;4902039;29;20068;-87
2022/10/28 09:11:12;;;;;;;56.63;23.95;;;;;;;-142.57;100.00;61215.63;4904618;29;20035;-87
2022/10/28 09:13:47;;;;;;;53.35;23.52;;;;;;;-142.57;100.00;61215.63;4900251;29;20127;-85
2022/10/28 09:16:22;;;;;;;59.22;24.45;;;;;;;-142.57;100.00;61215.63;4903553;29;20064;-88
2022/10/28 09:18:56;;;;;;;60.70;23.60;;;;;;;-142.57;100.00;61215.63;4898453;29;20041;-87
2022/10/28 09:21:35;;;;;;;57.38;25.42;;;;;;;-142.57;100.00;61215.63;4899648;29;20036;-88
2022/10/28 09:24:19;;;;;;;55.33;25.45;;;;;;;-142.57;100.00;61215.63;4901345;29;20046;-88
2022/10/28 09:27:09;;;;;;;48.67;24.58;;;;;;;-142.57;100.00;61215.63;4903070;29;20443;-89
2022/10/28 09:29:46;;;;;;;62.20;26.25;;;;;;;-142.57;100.00;61215.63;4901366;29;20095;-85
2022/10/28 09:32:37;;;;;;;57.60;26.58;;;;;;;-142.57;100.00;61215.63;4900383;29;20119;-86
2022/10/28 09:35:09;;;;;;;62.63;27.33;;;;;;;-142.57;100.00;61215.63;4899705;29;20041;-88
2022/10/28 09:37:47;;;;;;;62.50;25.30;;;;;;;-142.57;100.00;61215.63;4899929;29;20124;-88
2022/10/28 09:40:20;;;;;;;76.45;29.02;;;;;;;-142.57;100.00;61215.63;4900742;29;20112;-87
2022/10/28 09:43:08;;;;;;;68.90;27.35;;;;;;;-142.57;100.00;61215.63;4900145;29;20036;-86
2022/10/28 09:45:38;;;;;;;67.07;28.80;;;;;;;-142.57;100.00;61215.63;4898857;29;20036;-86
2022/10/28 09:48:21;;;;;;;74.22;30.58;;;;;;;-142.57;100.00;61215.63;4897544;29;20048;-87
2022/10/28 09:50:53;;;;;;;71.72;33.35;;;;;;;-142.57;100.00;61215.63;4899280;29;20067;-87
2022/10/28 09:53:42;;;;;;;70.30;30.83;;;;;;;-142.57;100.00;61215.63;4899753;29;20072;-88
2022/10/28 09:56:09;;;;;;;70.55;33.80;;;;;;;-142.57;100.00;61215.63;4907771;29;20048;-86
2022/10/28 09:58:37;;;;;;;70.13;30.95;;;;;;;-142.57;100.00;61215.63;4917175;29;20037;-85
2022/10/28 10:01:03;;;;;;;65.05;29.88;;;;;;;-142.57;100.00;61215.63;4921629;29;20036;-90
2022/10/28 10:03:30;;;;;;;73.20;31.88;;;;;;;-142.57;100.00;61215.63;4915622;29;20462;-85
2022/10/28 10:06:01;;;;;;;85.30;32.45;;;;;;;-142.57;100.00;61215.63;4901442;29;20060;-89
2022/10/28 10:08:30;;;;;;;80.68;31.70;;;;;;;-142.57;100.00;61215.63;4882057;29;20052;-89
2022/10/28 10:11:00;;;;;;;57.47;29.35;;;;;;;-142.57;100.00;61215.63;4898864;29;20044;-86
2022/10/28 10:13:32;;;;;;;62.75;29.77;;;;;;;-142.57;100.00;61215.63;4898835;29;20041;-89
2022/10/28 10:16:04;;;;;;;62.83;30.17;;;;;;;-142.57;100.00;61215.63;4898583;29;20040;-87
2022/10/28 10:18:35;;;;;;;63.53;31.17;;;;;;;-142.57;100.00;61215.63;4899329;29;20044;-86
2022/10/28 10:21:01;;;;;;;62.60;30.95;;;;;;;-142.57;100.00;61215.63;4899027;29;20037;-88
2022/10/28 10:23:31;;;;;;;61.53;30.17;;;;;;;-142.57;100.00;61215.63;4899897;29;20031;-87
2022/10/28 10:26:01;;;;;;;70.78;32.20;;;;;;;-142.57;100.00;61215.63;4900934;29;20089;-88
2022/10/28 10:28:30;;;;;;;69.03;30.35;;;;;;;-142.57;100.00;61215.63;4901741;29;20505;-86
2022/10/28 10:30:59;;;;;;;74.68;33.47;;;;;;;-142.57;100.00;61215.63;4902402;29;20041;-87
2022/10/28 10:33:27;;;;;;;65.65;33.75;;;;;;;-142.57;100.00;61215.63;4902721;29;20032;-87
2022/10/28 10:35:57;;;;;;;78.10;35.15;;;;;;;-142.57;100.00;61215.63;4904332;29;20064;-88
2022/10/28 10:38:23;;;;;;;66.63;31.90;;;;;;;-142.57;100.00;61215.63;4906746;29;20518;-88
2022/10/28 10:40:51;;;;;;;89.25;34.83;;;;;;;-142.57;100.00;61215.63;4907091;29;20041;-89
2022/10/28 10:43:35;;;;;;;81.13;36.45;;;;;;;-142.57;100.00;61215.63;4905158;29;20060;-86
2022/10/28 10:46:04;;;;;;;85.95;35.83;;;;;;;-142.57;100.00;61215.63;4906836;29;20112;-88
2022/10/28 10:48:34;;;;;;;80.78;36.85;;;;;;;-142.57;100.00;61215.63;4904510;29;20406;-87
2022/10/28 10:51:06;;;;;;;68.25;33.08;;;;;;;-142.57;100.00;61215.63;4909085;29;20040;-87
2022/10/28 10:53:32;;;;;;;79.30;36.17;;;;;;;-142.57;100.00;61215.63;4911899;29;20041;-88
2022/10/28 10:56:01;;;;;;;91.32;38.17;;;;;;;-142.57;100.00;61215.63;4909793;29;20032;-85
2022/10/28 10:58:31;;;;;;;77.35;35.92;;;;;;;-142.57;100.00;61215.63;4904175;29;20028;-87
2022/10/28 11:00:58;;;;;;;77.70;35.10;;;;;;;-142.57;100.00;61215.63;4882524;29;20075;-86
2022/10/28 11:03:26;;;;;;;76.45;35.08;;;;;;;-142.57;100.00;61215.63;4908967;29;20040;-86
2022/10/28 11:05:55;;;;;;;82.88;37.22;;;;;;;-142.57;100.00;61215.63;4914449;29;20036;-89
2022/10/28 11:08:42;;;;;;;85.55;36.22;;;;;;;-142.57;100.00;61215.63;4913332;29;20051;-89